Time;durP1;ratioP1;P1;durP2;ratioP2;P2;SDS_P1;SDS_P2;PMS_P1;PMS_P2;Temp;Humidity;BMP_temperature;BMP_pressure;BME280_temperature;BME280_humidity;BME280_pressure;Samples;Min_cycle;Max_cycle;Signal;HPM_P1;HPM_P2
2021/04/26 00:01:07;;;;;;;12.60;6.30;;;;;;;-0.80;68.46;100859.84;104240;1104;80150;-65
2021/04/26 00:03:13;;;;;;;11.70;6.20;;;;;;;-0.85;68.72;100851.32;104220;1104;79033;-65
2021/04/26 00:05:19;;;;;;;14.00;6.20;;;;;;;-0.85;68.83;100856.63;104254;1104;77160;-64
2021/04/26 00:07:25;;;;;;;12.90;6.50;;;;;;;-0.86;68.89;100857.60;104266;1099;78449;-62
2021/04/26 00:09:31;;;;;;;14.00;6.80;;;;;;;-0.86;69.35;100856.75;104231;1104;78414;-61
2021/04/26 00:11:37;;;;;;;12.60;6.50;;;;;;;-0.85;68.96;100861.11;104248;1104;76995;-65
2021/04/26 00:13:42;;;;;;;14.90;6.60;;;;;;;-0.85;69.01;100861.93;104270;1103;78425;-65
2021/04/26 00:15:47;;;;;;;13.50;7.60;;;;;;;-0.86;69.07;100864.70;104289;1099;78155;-62
2021/04/26 00:17:53;;;;;;;14.70;7.80;;;;;;;-0.87;69.35;100861.19;104272;1104;78167;-62
2021/04/26 00:20:00;;;;;;;12.20;6.60;;;;;;;-0.83;69.57;100859.19;104260;1100;78871;-61
2021/04/26 00:22:06;;;;;;;14.20;7.10;;;;;;;-0.86;69.53;100857.60;104234;1105;78941;-63
2021/04/26 00:24:12;;;;;;;11.80;6.60;;;;;;;-0.85;69.32;100855.80;104249;1099;77715;-62
2021/04/26 00:26:19;;;;;;;13.20;6.00;;;;;;;-0.87;69.98;100853.23;104277;1100;76648;-62
2021/04/26 00:28:25;;;;;;;11.30;7.00;;;;;;;-0.82;69.85;100856.41;104224;1104;77943;-61
2021/04/26 00:30:32;;;;;;;10.60;6.70;;;;;;;-0.78;69.84;100855.27;104287;1099;77229;-63
2021/04/26 00:32:39;;;;;;;9.90;5.90;;;;;;;-0.74;69.56;100848.77;104251;1105;78326;-62
2021/04/26 00:34:45;;;;;;;11.60;6.80;;;;;;;-0.75;70.03;100855.05;104232;1104;79066;-62
2021/04/26 00:36:51;;;;;;;13.10;6.40;;;;;;;-0.70;69.82;100860.03;104251;1103;77747;-61
2021/04/26 00:38:56;;;;;;;11.60;6.40;;;;;;;-0.65;70.03;100858.76;104238;1104;77385;-62
2021/04/26 00:41:02;;;;;;;14.10;7.10;;;;;;;-0.55;69.95;100868.73;104199;1104;78543;-65
2021/04/26 00:43:08;;;;;;;10.70;5.80;;;;;;;-0.51;70.16;100855.14;104234;1099;78685;-67
2021/04/26 00:45:21;;;;;;;10.00;6.20;;;;;;;-0.51;69.98;100860.44;104211;1104;78441;-66
2021/04/26 00:47:27;;;;;;;10.60;5.70;;;;;;;-0.46;70.19;100845.05;104195;1104;78600;-67
2021/04/26 00:49:33;;;;;;;11.90;6.00;;;;;;;-0.45;70.57;100840.59;104165;1104;77484;-64
2021/04/26 00:51:41;;;;;;;10.80;5.90;;;;;;;-0.40;70.91;100835.80;104173;1104;77968;-62
2021/04/26 00:53:47;;;;;;;10.30;5.60;;;;;;;-0.39;71.17;100833.05;104225;1104;77539;-61
2021/04/26 00:55:56;;;;;;;9.90;6.10;;;;;;;-0.37;70.73;100832.92;104267;1104;78700;-61
2021/04/26 00:58:02;;;;;;;11.20;6.10;;;;;;;-0.34;70.78;100838.02;104240;1099;77989;-61
2021/04/26 01:00:12;;;;;;;11.20;6.20;;;;;;;-0.30;70.77;100828.90;104237;1104;76952;-62
2021/04/26 01:02:17;;;;;;;12.10;6.30;;;;;;;-0.26;70.93;100825.91;104272;1104;77265;-62
2021/04/26 01:04:23;;;;;;;9.90;6.70;;;;;;;-0.28;70.53;100829.63;104216;1104;78758;-61
2021/04/26 01:06:28;;;;;;;12.30;8.30;;;;;;;-0.25;70.82;100832.89;104244;1104;77517;-61
2021/04/26 01:08:33;;;;;;;11.60;7.20;;;;;;;-0.22;70.68;100822.05;104248;1104;78698;-62
2021/04/26 01:10:40;;;;;;;12.50;7.10;;;;;;;-0.23;70.71;100828.34;104287;1100;78349;-62
2021/04/26 01:13:08;;;;;;;12.70;6.80;;;;;;;-0.32;70.72;100828.98;104285;1104;78477;-62
2021/04/26 01:15:23;;;;;;;10.50;6.00;;;;;;;-0.31;70.85;100837.80;104217;1104;78382;-62
2021/04/26 01:17:34;;;;;;;13.20;6.60;;;;;;;-0.27;70.89;100841.92;104229;1104;76691;-64
2021/04/26 01:20:40;;;;;;;12.40;6.80;;;;;;;-0.21;71.17;100836.17;104256;1104;78801;-63
2021/04/26 01:23:47;;;;;;;10.90;6.00;;;;;;;-0.14;70.98;100832.97;104133;1104;78237;-63
2021/04/26 01:25:54;;;;;;;11.20;5.80;;;;;;;-0.06;71.06;100824.47;104299;1104;79060;-62
2021/04/26 01:28:33;;;;;;;11.80;5.60;;;;;;;-0.06;71.40;100827.13;104232;1104;78601;-64
2021/04/26 01:30:48;;;;;;;11.00;6.00;;;;;;;-0.15;71.01;100818.02;104257;1103;78038;-62
2021/04/26 01:33:00;;;;;;;10.40;6.30;;;;;;;-0.20;71.02;100811.34;104239;1105;79062;-63
2021/04/26 01:35:09;;;;;;;12.40;5.70;;;;;;;-0.22;71.43;100818.58;104233;1104;77984;-62
2021/04/26 01:37:15;;;;;;;12.50;6.80;;;;;;;-0.27;71.60;100821.54;104293;1099;77881;-66
2021/04/26 01:39:22;;;;;;;10.40;6.50;;;;;;;-0.27;71.62;100824.20;104237;1104;76886;-64
2021/04/26 01:41:30;;;;;;;12.10;6.70;;;;;;;-0.30;72.00;100815.63;104227;1104;79425;-62
2021/04/26 01:43:41;;;;;;;11.10;5.70;;;;;;;-0.20;71.59;100819.30;104261;1104;77377;-62
2021/04/26 01:45:54;;;;;;;11.80;7.10;;;;;;;-0.13;71.41;100812.58;104221;1099;78317;-62
2021/04/26 01:48:01;;;;;;;9.30;5.60;;;;;;;-0.06;71.83;100813.84;104225;1104;78313;-62
2021/04/26 01:50:10;;;;;;;8.30;5.70;;;;;;;-0.04;71.98;100815.42;104251;1104;78792;-62
2021/04/26 01:52:17;;;;;;;11.10;5.90;;;;;;;0.00;71.76;100813.41;104281;1104;78255;-62
2021/04/26 01:54:22;;;;;;;9.00;5.50;;;;;;;0.02;71.72;100819.45;104221;1104;78055;-62
2021/04/26 01:56:28;;;;;;;10.20;5.60;;;;;;;0.05;72.11;100815.71;104224;1104;78138;-64
2021/04/26 01:58:34;;;;;;;9.50;5.40;;;;;;;0.10;71.98;100827.70;104215;1104;77899;-64
2021/04/26 02:00:43;;;;;;;8.30;5.20;;;;;;;0.17;71.71;100815.65;104236;1104;77158;-64
2021/04/26 02:02:49;;;;;;;9.20;5.60;;;;;;;0.16;71.56;100811.31;104256;1104;78355;-65
2021/04/26 02:04:56;;;;;;;10.60;5.90;;;;;;;0.17;71.93;100814.80;104241;1104;76986;-65
2021/04/26 02:07:03;;;;;;;12.90;6.20;;;;;;;0.16;71.93;100813.13;104197;1104;79401;-62
2021/04/26 02:09:09;;;;;;;11.60;6.60;;;;;;;0.21;71.97;100810.97;104261;1104;77392;-61
2021/04/26 02:11:15;;;;;;;10.80;6.30;;;;;;;0.24;72.09;100806.28;104229;1104;79047;-64
2021/04/26 02:13:26;;;;;;;10.30;6.30;;;;;;;0.19;71.97;100810.23;104239;1104;78259;-65
2021/04/26 02:15:33;;;;;;;11.30;6.00;;;;;;;0.20;71.74;100809.26;104239;1099;77015;-63
2021/04/26 02:17:43;;;;;;;11.40;5.80;;;;;;;0.24;72.14;100808.94;104226;1099;78342;-64
2021/04/26 02:19:48;;;;;;;9.70;5.70;;;;;;;0.26;71.87;100807.01;104258;1104;78290;-65
2021/04/26 02:21:53;;;;;;;10.90;6.80;;;;;;;0.31;72.06;100807.51;104228;1099;79594;-62
2021/04/26 02:24:01;;;;;;;11.10;7.10;;;;;;;0.38;72.08;100807.91;104240;1104;79545;-62
2021/04/26 02:26:06;;;;;;;12.40;7.30;;;;;;;0.41;71.64;100803.19;104243;1104;76980;-62
2021/04/26 02:28:13;;;;;;;13.40;7.60;;;;;;;0.49;71.68;100806.16;104227;1100;77375;-61
2021/04/26 02:30:23;;;;;;;12.50;7.50;;;;;;;0.54;71.58;100809.30;104224;1105;77085;-61
2021/04/26 02:32:37;;;;;;;13.60;7.70;;;;;;;0.58;71.48;100808.09;104250;1099;76922;-65
2021/04/26 02:34:51;;;;;;;12.90;7.10;;;;;;;0.63;72.10;100799.80;104222;1104;76764;-65
2021/04/26 02:37:09;;;;;;;13.60;7.00;;;;;;;0.67;71.51;100797.72;104292;1099;78459;-61
2021/04/26 02:39:15;;;;;;;16.50;7.90;;;;;;;0.64;71.29;100804.13;104213;1104;78225;-63
2021/04/26 02:41:24;;;;;;;14.30;7.90;;;;;;;0.64;71.16;100804.13;104220;1099;77403;-64
2021/04/26 02:43:30;;;;;;;11.70;7.70;;;;;;;0.62;71.50;100800.74;104231;1105;76780;-65
2021/04/26 02:45:39;;;;;;;13.10;7.50;;;;;;;0.64;71.46;100796.15;104223;1104;77539;-64
2021/04/26 02:47:47;;;;;;;12.80;7.90;;;;;;;0.65;71.66;100799.66;104196;1104;78559;-64
2021/04/26 02:49:53;;;;;;;14.70;7.90;;;;;;;0.67;71.63;100797.72;104219;1104;77152;-65
2021/04/26 02:52:04;;;;;;;14.70;7.80;;;;;;;0.69;71.65;100796.64;104250;1099;78190;-65
2021/04/26 02:54:10;;;;;;;13.80;7.50;;;;;;;0.71;71.19;100800.05;104233;1104;77153;-65
2021/04/26 02:56:18;;;;;;;12.30;7.30;;;;;;;0.69;71.03;100790.50;104242;1100;77076;-61
2021/04/26 02:58:27;;;;;;;13.20;7.20;;;;;;;0.65;71.25;100799.66;104237;1105;78551;-61
2021/04/26 03:00:36;;;;;;;12.40;7.90;;;;;;;0.65;71.15;100803.17;104247;1104;78306;-62
2021/04/26 03:02:42;;;;;;;15.90;8.20;;;;;;;0.64;71.24;100797.95;104241;1104;78236;-62
2021/04/26 03:04:48;;;;;;;12.20;7.80;;;;;;;0.60;71.64;100800.84;104199;1104;77034;-61
2021/04/26 03:06:57;;;;;;;15.40;7.90;;;;;;;0.63;71.40;100796.28;104255;1104;78274;-64
2021/04/26 03:09:03;;;;;;;12.50;7.60;;;;;;;0.69;71.41;100801.14;104236;1099;77983;-64
2021/04/26 03:11:10;;;;;;;13.50;6.80;;;;;;;0.74;71.19;100791.00;104250;1104;78210;-61
2021/04/26 03:13:17;;;;;;;12.70;7.50;;;;;;;0.71;71.31;100791.23;104254;1104;76771;-61
2021/04/26 03:15:27;;;;;;;15.80;8.00;;;;;;;0.66;71.13;100790.73;104257;1104;77368;-62
2021/04/26 03:17:33;;;;;;;10.70;6.50;;;;;;;0.61;71.24;100788.41;104263;1104;78780;-62
2021/04/26 03:19:40;;;;;;;13.40;7.80;;;;;;;0.48;71.25;100785.84;104201;1104;78989;-62
2021/04/26 03:21:48;;;;;;;11.70;6.40;;;;;;;0.42;71.14;100793.41;104233;1104;76805;-62
2021/04/26 03:23:56;;;;;;;11.20;6.80;;;;;;;0.36;71.29;100789.41;104213;1104;78843;-61
2021/04/26 03:26:02;;;;;;;11.00;6.60;;;;;;;0.28;71.41;100791.80;104240;1105;78885;-65
2021/04/26 03:28:08;;;;;;;14.00;7.00;;;;;;;0.26;71.51;100793.73;104238;1099;78294;-65
2021/04/26 03:30:20;;;;;;;10.60;6.90;;;;;;;0.15;71.48;100796.33;104241;1104;78668;-66
2021/04/26 03:32:26;;;;;;;11.00;6.70;;;;;;;0.13;71.41;100792.09;104186;1104;78020;-66
2021/04/26 03:34:33;;;;;;;11.20;6.70;;;;;;;0.10;71.76;100793.17;104261;1104;78496;-64
2021/04/26 03:36:39;;;;;;;15.50;7.20;;;;;;;-0.01;71.65;100796.63;104215;1104;77790;-62
2021/04/26 03:38:46;;;;;;;16.50;7.30;;;;;;;-0.05;72.17;100796.94;104177;1104;79904;-62
2021/04/26 03:40:55;;;;;;;12.30;7.40;;;;;;;-0.06;72.33;100800.57;104240;1104;77944;-62
2021/04/26 03:43:03;;;;;;;12.20;7.20;;;;;;;-0.05;72.34;100799.59;104256;1104;78458;-61
2021/04/26 03:45:14;;;;;;;9.80;6.10;;;;;;;-0.05;71.95;100804.90;104204;1104;76948;-61
2021/04/26 03:47:20;;;;;;;12.00;6.40;;;;;;;-0.09;72.01;100808.75;104227;1104;77697;-64
2021/04/26 03:49:26;;;;;;;12.30;6.60;;;;;;;-0.06;72.46;100813.84;104227;1104;77786;-66
2021/04/26 03:51:32;;;;;;;13.20;7.10;;;;;;;0.05;72.60;100821.88;104138;1107;77186;-65
2021/04/26 03:53:37;;;;;;;12.20;7.50;;;;;;;0.18;72.24;100811.19;104246;1104;77984;-64
2021/04/26 03:55:42;;;;;;;13.90;8.10;;;;;;;0.24;72.08;100819.56;104195;1104;79267;-64
2021/04/26 03:57:48;;;;;;;13.50;7.00;;;;;;;0.25;72.04;100809.80;104238;1104;77461;-65
2021/04/26 03:59:53;;;;;;;12.80;7.00;;;;;;;0.23;72.29;100817.86;104245;1104;77220;-67
2021/04/26 04:01:58;;;;;;;11.10;7.10;;;;;;;0.33;72.11;100805.58;104191;1104;78832;-64
2021/04/26 04:04:05;;;;;;;12.10;7.30;;;;;;;0.34;72.56;100812.59;104169;1104;77792;-64
2021/04/26 04:06:10;;;;;;;11.50;7.10;;;;;;;0.37;72.52;100812.38;104277;1099;77197;-65
2021/04/26 04:08:15;;;;;;;11.30;6.80;;;;;;;0.40;72.00;100814.80;104194;1104;76994;-64
2021/04/26 04:10:20;;;;;;;12.50;6.50;;;;;;;0.39;71.98;100815.75;104230;1099;77672;-63
2021/04/26 04:12:26;;;;;;;13.10;8.30;;;;;;;0.43;71.85;100817.23;104237;1100;78797;-64
2021/04/26 04:14:31;;;;;;;19.10;8.50;;;;;;;0.53;71.56;100820.89;104259;1104;78062;-64
2021/04/26 04:16:36;;;;;;;11.90;7.40;;;;;;;0.58;71.89;100815.22;104278;1104;77478;-63
2021/04/26 04:18:41;;;;;;;20.60;9.00;;;;;;;0.87;72.05;100819.19;104217;1104;79615;-61
2021/04/26 04:20:46;;;;;;;15.90;8.30;;;;;;;1.52;72.70;100808.72;104212;1104;77875;-62
2021/04/26 04:22:54;;;;;;;15.60;8.00;;;;;;;2.18;71.89;100799.77;104224;1100;78439;-61
2021/04/26 04:24:59;;;;;;;18.00;8.50;;;;;;;2.62;71.59;100817.41;104241;1104;78541;-61
2021/04/26 04:27:05;;;;;;;13.00;8.30;;;;;;;3.20;71.41;100807.11;104251;1104;79396;-65
2021/04/26 04:29:10;;;;;;;13.40;8.10;;;;;;;4.26;71.41;100803.80;104220;1104;78405;-64
2021/04/26 04:31:15;;;;;;;11.60;7.00;;;;;;;5.95;70.16;100797.54;104241;1100;78324;-64
2021/04/26 04:33:20;;;;;;;12.30;7.30;;;;;;;7.28;68.59;100800.07;104236;1099;77594;-64
2021/04/26 04:35:26;;;;;;;12.20;6.60;;;;;;;8.44;66.02;100792.16;104230;1104;77421;-62
2021/04/26 04:37:31;;;;;;;12.60;6.90;;;;;;;9.35;64.52;100790.97;104259;1104;78398;-62
2021/04/26 04:39:37;;;;;;;10.00;6.10;;;;;;;10.29;62.32;100790.11;104219;1104;77009;-63
2021/04/26 04:41:42;;;;;;;9.70;5.70;;;;;;;11.03;59.62;100801.05;104249;1104;77569;-64
2021/04/26 04:43:47;;;;;;;9.20;5.80;;;;;;;11.77;57.86;100799.30;104250;1104;79265;-65
2021/04/26 04:45:53;;;;;;;8.00;5.70;;;;;;;12.42;55.92;100794.69;104182;1104;79452;-65
2021/04/26 04:47:58;;;;;;;9.30;5.80;;;;;;;13.19;53.91;100800.27;104259;1099;77322;-65
2021/04/26 04:50:03;;;;;;;8.80;5.20;;;;;;;13.55;52.13;100809.09;104250;1104;78151;-65
2021/04/26 04:52:09;;;;;;;7.80;5.10;;;;;;;13.72;50.83;100804.20;104241;1099;78455;-65
2021/04/26 04:54:14;;;;;;;7.50;4.70;;;;;;;14.16;49.71;100801.08;104241;1104;78765;-64
2021/04/26 04:56:19;;;;;;;8.80;5.00;;;;;;;14.44;48.15;100799.13;104238;1099;77474;-60
2021/04/26 04:58:24;;;;;;;7.00;4.90;;;;;;;15.28;47.03;100802.15;104256;1104;78419;-62
2021/04/26 05:00:29;;;;;;;6.60;5.30;;;;;;;16.01;45.38;100792.00;104270;1100;78840;-60
2021/04/26 05:02:37;;;;;;;7.00;4.50;;;;;;;16.83;43.28;100795.59;104271;1104;78795;-62
2021/04/26 05:04:42;;;;;;;6.80;5.30;;;;;;;17.34;41.89;100789.08;104217;1104;77579;-61
2021/04/26 05:06:48;;;;;;;5.60;3.90;;;;;;;17.43;39.99;100793.20;104276;1099;77519;-60
2021/04/26 05:08:57;;;;;;;5.80;4.30;;;;;;;17.14;40.33;100796.63;104224;1104;79462;-61
2021/04/26 05:11:02;;;;;;;6.20;4.50;;;;;;;17.07;38.77;100804.85;104212;1104;77290;-60
2021/04/26 05:13:08;;;;;;;7.00;4.20;;;;;;;17.24;38.28;100805.14;104226;1104;78448;-62
2021/04/26 05:15:16;;;;;;;8.00;4.30;;;;;;;17.46;37.10;100798.22;104195;1100;77802;-61
2021/04/26 05:17:21;;;;;;;5.70;3.50;;;;;;;17.47;36.84;100799.91;104227;1104;79509;-65
2021/04/26 05:19:27;;;;;;;6.90;4.00;;;;;;;17.72;36.51;100799.91;104222;1104;79648;-64
2021/04/26 05:21:36;;;;;;;6.60;3.60;;;;;;;18.07;35.91;100796.34;104252;1104;78657;-61
2021/04/26 05:23:44;;;;;;;5.70;4.00;;;;;;;18.25;35.76;100799.05;104248;1104;77588;-60
2021/04/26 05:25:54;;;;;;;4.60;3.70;;;;;;;18.34;35.25;100802.31;104219;1104;79575;-61
2021/04/26 05:27:59;;;;;;;5.60;3.80;;;;;;;18.54;34.36;100797.42;104226;1099;80432;-60
2021/04/26 05:30:08;;;;;;;4.50;3.40;;;;;;;18.60;33.22;100801.98;104221;1104;78093;-60
2021/04/26 05:32:16;;;;;;;5.00;2.80;;;;;;;18.69;32.75;100797.86;104241;1097;77028;-65
2021/04/26 05:34:25;;;;;;;4.00;3.10;;;;;;;18.44;32.38;100797.13;104240;1104;78910;-64
2021/04/26 05:36:33;;;;;;;3.80;2.30;;;;;;;18.82;31.76;100800.39;104240;1097;78010;-61
2021/04/26 05:38:38;;;;;;;4.20;2.30;;;;;;;18.71;31.69;100801.19;104233;1104;79093;-63
2021/04/26 05:40:47;;;;;;;4.50;2.60;;;;;;;18.67;30.69;100793.69;104210;1104;77704;-63
2021/04/26 05:42:55;;;;;;;3.30;2.60;;;;;;;18.73;30.59;100800.97;104213;1104;79306;-65
2021/04/26 05:45:00;;;;;;;3.00;1.90;;;;;;;18.69;30.73;100802.48;104226;1104;79208;-64
2021/04/26 05:47:06;;;;;;;3.40;2.40;;;;;;;18.55;30.31;100803.73;104264;1099;77746;-61
2021/04/26 05:49:11;;;;;;;3.90;2.60;;;;;;;18.71;29.85;100797.61;104276;1099;79071;-61
2021/04/26 05:51:16;;;;;;;3.70;2.20;;;;;;;18.84;29.73;100800.98;104264;1105;77987;-60
2021/04/26 05:53:26;;;;;;;3.80;2.20;;;;;;;18.83;29.69;100796.59;104233;1098;78240;-61
2021/04/26 05:55:34;;;;;;;3.40;2.20;;;;;;;19.19;30.01;100801.09;104287;1104;79333;-64
2021/04/26 05:57:39;;;;;;;4.40;2.40;;;;;;;19.25;29.42;100802.89;104217;1104;78730;-64
2021/04/26 05:59:44;;;;;;;3.00;1.90;;;;;;;19.76;29.01;100809.59;104257;1104;78460;-65
2021/04/26 06:01:50;;;;;;;2.60;1.70;;;;;;;19.74;28.27;100806.27;104217;1104;78741;-59
2021/04/26 06:03:55;;;;;;;4.00;1.60;;;;;;;19.82;28.41;100812.23;104236;1104;78496;-60
2021/04/26 06:06:03;;;;;;;2.40;1.60;;;;;;;19.57;27.86;100816.27;104177;1104;78793;-65
2021/04/26 06:08:12;;;;;;;3.10;1.90;;;;;;;19.57;28.48;100819.02;104242;1104;78859;-62
2021/04/26 06:10:20;;;;;;;2.30;1.60;;;;;;;19.70;27.23;100808.64;104296;1099;77244;-60
2021/04/26 06:12:25;;;;;;;2.30;1.80;;;;;;;19.35;27.81;100816.83;104226;1104;77966;-61
2021/04/26 06:14:30;;;;;;;2.70;1.50;;;;;;;19.51;27.62;100820.80;104227;1104;78431;-66
2021/04/26 06:16:36;;;;;;;2.50;1.80;;;;;;;19.10;27.80;100818.08;104267;1105;79256;-61
2021/04/26 06:18:45;;;;;;;2.40;1.50;;;;;;;18.97;29.00;100819.14;104259;1104;77196;-61
2021/04/26 06:20:54;;;;;;;3.10;1.80;;;;;;;18.34;28.44;100817.89;104420;1088;77212;-60
2021/04/26 06:23:02;;;;;;;2.50;1.00;;;;;;;17.67;28.38;100822.42;104256;1104;79662;-62
2021/04/26 06:25:12;;;;;;;1.50;1.00;;;;;;;17.43;28.79;100821.36;104240;1104;79052;-65
2021/04/26 06:27:18;;;;;;;2.60;1.20;;;;;;;16.85;29.25;100823.48;104252;1104;78903;-65
2021/04/26 06:29:26;;;;;;;2.20;1.30;;;;;;;16.04;30.24;100827.81;104263;1104;78901;-64
2021/04/26 06:31:34;;;;;;;4.90;1.50;;;;;;;15.58;30.95;100832.52;104238;1104;79459;-75
2021/04/26 06:33:40;;;;;;;1.90;1.20;;;;;;;15.36;31.65;100826.44;104209;1104;78071;-60
2021/04/26 06:35:48;;;;;;;2.30;1.00;;;;;;;15.18;31.56;100824.36;104230;1104;78784;-61
2021/04/26 06:37:57;;;;;;;2.20;1.10;;;;;;;15.04;31.96;100821.83;104268;1104;78086;-61
2021/04/26 06:40:07;;;;;;;3.10;1.30;;;;;;;15.12;32.48;100829.78;104285;1099;77994;-64
2021/04/26 06:42:14;;;;;;;1.50;1.00;;;;;;;15.52;31.99;100830.67;104300;1100;77530;-69
2021/04/26 06:44:19;;;;;;;2.30;1.30;;;;;;;15.71;31.71;100836.06;104605;1087;78485;-71
2021/04/26 06:46:31;;;;;;;2.60;1.40;;;;;;;14.96;32.04;100827.47;104266;1104;78381;-68
2021/04/26 06:48:36;;;;;;;3.40;1.60;;;;;;;15.79;32.39;100833.11;104270;1104;78962;-68
2021/04/26 06:50:43;;;;;;;1.90;0.90;;;;;;;15.38;30.98;100835.25;104259;1099;78321;-68
2021/04/26 06:52:49;;;;;;;2.20;1.40;;;;;;;14.28;32.45;100837.52;104220;1104;78704;-69
2021/04/26 06:54:55;;;;;;;2.30;1.20;;;;;;;13.69;32.81;100837.17;104209;1104;78274;-69
2021/04/26 06:57:03;;;;;;;2.20;1.10;;;;;;;13.38;32.94;100840.28;104219;1104;78474;-68
2021/04/26 06:59:09;;;;;;;2.50;0.90;;;;;;;12.37;33.71;100848.63;104203;1104;79210;-66
2021/04/26 07:01:15;;;;;;;1.90;1.30;;;;;;;12.01;34.11;100847.73;104121;1107;78866;-69
2021/04/26 07:03:24;;;;;;;2.80;1.20;;;;;;;13.38;35.03;100834.01;104170;1101;77368;-63
2021/04/26 07:05:29;;;;;;;3.10;1.40;;;;;;;14.14;33.69;100833.89;104255;1104;78378;-65
2021/04/26 07:07:38;;;;;;;2.60;1.00;;;;;;;15.06;33.01;100830.61;104116;1107;79205;-64
2021/04/26 07:09:47;;;;;;;3.00;1.30;;;;;;;16.08;32.05;100828.23;104232;1104;78433;-65
2021/04/26 07:11:57;;;;;;;2.00;1.00;;;;;;;17.65;31.22;100824.55;104269;1104;78249;-66
2021/04/26 07:14:06;;;;;;;2.40;1.10;;;;;;;18.02;28.40;100819.97;104244;1104;78810;-64
2021/04/26 07:16:14;;;;;;;2.30;1.40;;;;;;;17.22;29.78;100819.03;104269;1104;78039;-63
2021/04/26 07:18:20;;;;;;;2.10;0.90;;;;;;;16.52;29.33;100828.26;104232;1104;79350;-64
2021/04/26 07:20:30;;;;;;;1.50;1.00;;;;;;;16.66;30.17;100829.90;104282;1104;78386;-66
2021/04/26 07:22:38;;;;;;;1.10;0.80;;;;;;;16.40;27.87;100829.98;104282;1098;78192;-64
2021/04/26 07:24:44;;;;;;;2.90;1.00;;;;;;;14.85;28.61;100830.80;104228;1105;77546;-61
2021/04/26 07:26:52;;;;;;;2.50;1.10;;;;;;;13.90;29.48;100826.22;104224;1104;78745;-61
2021/04/26 07:28:58;;;;;;;2.90;1.70;;;;;;;14.70;31.01;100825.53;104251;1104;78580;-63
2021/04/26 07:31:09;;;;;;;3.20;1.60;;;;;;;15.47;29.73;100822.27;104124;1105;78698;-62
2021/04/26 07:33:17;;;;;;;2.70;1.30;;;;;;;14.45;29.87;100827.16;104250;1104;79032;-62
2021/04/26 07:35:34;;;;;;;2.70;1.30;;;;;;;13.16;30.87;100819.64;104128;1100;78635;-63
2021/04/26 07:37:44;;;;;;;3.00;1.10;;;;;;;12.06;32.29;100834.46;104232;1105;77638;-68
2021/04/26 07:39:50;;;;;;;1.40;1.20;;;;;;;12.18;33.86;100835.67;104620;1087;78012;-62
2021/04/26 07:41:58;;;;;;;2.70;1.50;;;;;;;14.54;32.80;100826.75;104235;1099;78850;-67
2021/04/26 07:44:07;;;;;;;2.30;1.20;;;;;;;16.64;30.62;100823.83;104210;1104;78455;-61
2021/04/26 07:46:12;;;;;;;2.10;0.90;;;;;;;18.31;29.33;100821.08;104243;1100;78903;-61
2021/04/26 07:48:18;;;;;;;4.10;1.00;;;;;;;19.19;27.38;100812.05;104213;1104;77910;-60
2021/04/26 07:50:23;;;;;;;1.60;0.90;;;;;;;20.32;26.08;100809.78;104278;1098;79351;-64
2021/04/26 07:52:29;;;;;;;1.60;0.80;;;;;;;20.69;25.25;100821.20;104220;1104;77729;-64
2021/04/26 07:54:37;;;;;;;1.60;0.90;;;;;;;19.79;24.39;100811.86;104182;1104;80114;-62
2021/04/26 07:56:42;;;;;;;1.40;0.60;;;;;;;19.99;24.21;100813.17;104297;1104;78127;-62
2021/04/26 07:58:47;;;;;;;1.40;0.60;;;;;;;19.40;23.84;100808.77;104217;1104;77445;-62
2021/04/26 08:00:53;;;;;;;1.90;0.80;;;;;;;19.09;24.42;100814.50;104259;1099;78292;-61
2021/04/26 08:03:01;;;;;;;1.30;0.60;;;;;;;19.43;23.90;100815.67;104186;1104;78769;-62
2021/04/26 08:05:12;;;;;;;2.50;0.80;;;;;;;20.27;24.31;100811.59;104245;1099;78500;-66
2021/04/26 08:07:18;;;;;;;0.90;0.60;;;;;;;21.83;23.77;100805.31;104279;1098;77558;-66
2021/04/26 08:09:26;;;;;;;1.10;0.80;;;;;;;21.57;21.32;100804.92;104226;1099;78202;-68
2021/04/26 08:11:31;;;;;;;1.30;0.70;;;;;;;21.28;22.23;100806.11;104285;1104;78446;-61
2021/04/26 08:13:39;;;;;;;0.90;0.70;;;;;;;21.28;22.00;100799.78;104288;1098;78156;-62
2021/04/26 08:15:45;;;;;;;1.70;0.80;;;;;;;21.39;21.55;100798.86;104282;1104;78826;-61
2021/04/26 08:17:50;;;;;;;2.50;0.80;;;;;;;20.97;21.59;100801.13;104228;1104;78759;-61
2021/04/26 08:19:59;;;;;;;1.60;0.90;;;;;;;19.52;21.60;100810.67;104212;1104;79552;-62
2021/04/26 08:22:05;;;;;;;1.90;0.80;;;;;;;17.30;22.56;100812.45;104238;1104;79174;-61
2021/04/26 08:24:13;;;;;;;1.40;0.80;;;;;;;15.67;23.67;100821.21;104215;1104;77068;-60
2021/04/26 08:26:21;;;;;;;0.90;0.70;;;;;;;14.81;25.04;100815.92;104280;1104;78156;-68
2021/04/26 08:28:29;;;;;;;1.50;0.70;;;;;;;15.95;25.32;100815.49;104261;1099;77514;-68
2021/04/26 08:30:39;;;;;;;0.90;0.60;;;;;;;17.22;24.31;100807.27;104258;1104;77401;-65
2021/04/26 08:32:44;;;;;;;2.30;0.70;;;;;;;18.58;24.56;100797.80;104241;1104;79364;-64
2021/04/26 08:34:49;;;;;;;1.80;0.80;;;;;;;19.72;24.62;100800.20;104230;1098;79533;-66
2021/04/26 08:36:55;;;;;;;1.50;0.70;;;;;;;20.15;23.35;100786.89;104203;1100;77604;-64
2021/04/26 08:39:00;;;;;;;1.70;0.90;;;;;;;18.28;22.23;100795.87;104254;1104;78178;-67
2021/04/26 08:41:15;;;;;;;1.00;0.70;;;;;;;16.43;23.04;100805.01;104258;1104;76954;-66
2021/04/26 08:43:24;;;;;;;2.10;0.50;;;;;;;15.29;23.92;100803.84;104248;1104;79821;-63
2021/04/26 08:45:30;;;;;;;1.90;0.80;;;;;;;14.25;24.77;100805.30;104320;1099;78573;-61
2021/04/26 08:47:37;;;;;;;2.20;0.90;;;;;;;13.72;26.36;100800.63;104265;1099;77257;-61
2021/04/26 08:49:43;;;;;;;1.70;0.80;;;;;;;13.31;25.93;100804.13;104225;1104;77920;-61
2021/04/26 08:51:49;;;;;;;2.80;0.80;;;;;;;12.93;26.57;100805.44;104235;1099;77353;-61
2021/04/26 08:53:54;;;;;;;1.50;0.70;;;;;;;12.50;26.72;100801.86;104219;1105;77427;-60
2021/04/26 08:55:59;;;;;;;1.20;0.70;;;;;;;12.74;27.59;100797.95;104255;1104;79154;-64
2021/04/26 08:58:05;;;;;;;1.80;0.70;;;;;;;13.07;28.22;100799.14;104255;1098;78586;-64
2021/04/26 09:00:16;;;;;;;1.30;0.70;;;;;;;14.72;28.17;100786.20;104396;1087;77469;-61
2021/04/26 09:02:21;;;;;;;2.40;0.70;;;;;;;17.06;27.69;100776.71;104259;1104;78169;-65
2021/04/26 09:04:27;;;;;;;2.00;0.90;;;;;;;17.93;26.10;100764.75;104240;1104;79196;-63
2021/04/26 09:06:53;;;;;;;2.00;0.90;;;;;;;17.37;25.31;100781.28;104228;1104;78935;-65
2021/04/26 09:08:58;;;;;;;1.90;0.90;;;;;;;16.69;24.66;100776.79;104225;1104;77340;-63
2021/04/26 09:11:05;;;;;;;1.90;1.00;;;;;;;15.31;25.02;100785.40;104231;1104;79511;-65
2021/04/26 09:13:47;;;;;;;2.70;0.80;;;;;;;14.36;25.65;100791.16;104239;1104;77492;-64
2021/04/26 09:15:56;;;;;;;;;;;;;;;13.37;26.98;100795.20;104047;1108;78939;-64
2021/04/26 09:18:01;;;;;;;1.50;0.80;;;;;;;13.23;27.54;100790.70;104079;1108;77107;-63
2021/04/26 09:20:24;;;;;;;1.10;0.60;;;;;;;13.91;27.67;100789.04;104080;1107;79038;-60
2021/04/26 09:22:48;;;;;;;1.30;0.70;;;;;;;14.73;27.27;100787.89;104231;1099;78227;-60
2021/04/26 09:24:53;;;;;;;2.60;1.00;;;;;;;15.38;26.10;100777.23;104272;1104;78138;-63
2021/04/26 09:27:09;;;;;;;1.00;0.60;;;;;;;16.07;26.93;100775.59;104238;1098;77178;-60
2021/04/26 09:29:21;;;;;;;1.40;0.80;;;;;;;15.73;25.88;100771.34;104234;1104;78175;-65
2021/04/26 09:31:27;;;;;;;1.40;0.90;;;;;;;15.24;25.61;100774.50;104265;1104;77576;-63
2021/04/26 09:33:38;;;;;;;2.10;0.90;;;;;;;15.00;26.07;100779.73;104220;1104;77010;-63
2021/04/26 09:35:44;;;;;;;1.90;0.90;;;;;;;14.35;26.54;100775.03;104240;1104;79498;-64
2021/04/26 09:37:49;;;;;;;1.00;0.70;;;;;;;14.05;27.07;100771.77;104103;1098;78450;-63
2021/04/26 09:40:07;;;;;;;1.50;1.00;;;;;;;13.71;26.73;100777.22;104259;1099;78717;-61
2021/04/26 09:42:13;;;;;;;1.60;0.90;;;;;;;13.26;27.54;100774.04;104261;1104;78315;-61
2021/04/26 09:44:20;;;;;;;1.00;0.60;;;;;;;13.00;28.10;100771.06;104258;1104;77823;-64
2021/04/26 09:46:43;;;;;;;2.30;1.00;;;;;;;13.59;28.25;100780.53;104295;1098;77070;-67
2021/04/26 09:48:51;;;;;;;1.70;0.60;;;;;;;13.32;26.94;100766.98;104256;1099;76542;-66